Time;durP1;ratioP1;P1;durP2;ratioP2;P2;SDS_P1;SDS_P2;PMS_P1;PMS_P2;Temp;Humidity;BMP_temperature;BMP_pressure;BME280_temperature;BME280_humidity;BME280_pressure;Samples;Min_cycle;Max_cycle;Signal;HPM_P1;HPM_P2
2022/05/03 00:01:57;;;;;;;23.92;18.17;;;;;;;16.08;62.95;101126.75;5049828;28;20041;-82
2022/05/03 00:04:53;;;;;;;24.73;17.70;;;;;;;16.09;63.36;101131.06;5051636;28;20021;-82
2022/05/03 00:07:34;;;;;;;24.95;17.83;;;;;;;16.06;63.39;101123.38;5051721;28;20455;-82
2022/05/03 00:10:24;;;;;;;23.90;16.10;;;;;;;16.09;63.46;101127.59;5051808;28;20111;-82
2022/05/03 00:13:06;;;;;;;25.48;17.65;;;;;;;16.06;63.62;101126.88;5051808;28;20029;-82
2022/05/03 00:15:35;;;;;;;25.35;17.35;;;;;;;16.05;63.77;101126.97;5051552;28;20079;-81
2022/05/03 00:18:03;;;;;;;25.75;17.50;;;;;;;16.01;63.79;101117.59;5051460;28;20017;-81
2022/05/03 00:20:29;;;;;;;23.45;16.27;;;;;;;15.97;63.87;101119.63;5051670;28;20025;-82
2022/05/03 00:22:55;;;;;;;28.48;20.20;;;;;;;15.97;63.51;101119.63;5051559;28;20025;-82
2022/05/03 00:25:21;;;;;;;28.40;19.23;;;;;;;15.94;63.80;101119.91;5051707;28;20390;-81
2022/05/03 00:27:47;;;;;;;25.70;18.60;;;;;;;15.92;63.85;101113.88;5051561;28;20025;-82
2022/05/03 00:30:13;;;;;;;24.38;16.88;;;;;;;15.94;63.85;101111.97;5052018;28;20065;-81
2022/05/03 00:32:40;;;;;;;29.35;18.83;;;;;;;15.92;64.27;101107.75;5051373;28;20036;-82
2022/05/03 00:35:08;;;;;;;26.23;17.95;;;;;;;15.95;64.19;101112.78;5051516;28;20021;-82
2022/05/03 00:37:33;;;;;;;26.20;18.50;;;;;;;15.85;64.15;101105.56;5051573;28;20074;-82
2022/05/03 00:39:59;;;;;;;21.00;15.50;;;;;;;15.88;64.06;101106.28;5051386;28;20021;-82
2022/05/03 00:42:43;;;;;;;23.05;17.05;;;;;;;15.95;64.27;101104.84;5051066;28;20025;-81
2022/05/03 00:45:23;;;;;;;25.20;17.35;;;;;;;15.96;64.47;101107.38;5051364;28;20029;-81
2022/05/03 00:47:53;;;;;;;22.05;16.40;;;;;;;15.97;64.25;101102.91;5051553;28;20427;-82
2022/05/03 00:50:37;;;;;;;24.35;17.17;;;;;;;15.96;64.26;101102.09;5051343;28;20103;-81
2022/05/03 00:53:16;;;;;;;22.33;16.70;;;;;;;15.92;64.08;101099.81;5051104;28;20056;-81
2022/05/03 00:56:00;;;;;;;23.45;16.67;;;;;;;15.93;64.51;101094.38;5051496;28;20071;-82
2022/05/03 00:58:34;;;;;;;24.30;16.60;;;;;;;15.95;64.48;101091.59;5051615;28;20025;-81
2022/05/03 01:01:04;;;;;;;27.67;18.70;;;;;;;15.83;64.56;101090.78;5051335;28;20021;-82
2022/05/03 01:03:42;;;;;;;20.52;16.80;;;;;;;15.86;64.63;101090.53;5051346;28;20029;-82
2022/05/03 01:06:10;;;;;;;27.52;18.10;;;;;;;15.91;64.46;101087.53;5051156;28;20056;-82
2022/05/03 01:08:41;;;;;;;25.92;17.92;;;;;;;15.86;64.85;101086.06;5051514;28;20025;-82
2022/05/03 01:11:25;;;;;;;25.50;17.85;;;;;;;15.84;64.51;101085.38;5051367;28;20021;-82
2022/05/03 01:14:15;;;;;;;26.30;18.00;;;;;;;15.79;64.82;101076.94;5054807;28;20033;-82
2022/05/03 01:16:55;;;;;;;25.33;18.08;;;;;;;15.78;64.99;101083.19;5053707;28;20040;-81
2022/05/03 01:19:41;;;;;;;24.25;17.15;;;;;;;15.89;64.81;101081.50;5054808;28;20017;-81
2022/05/03 01:22:38;;;;;;;23.65;17.05;;;;;;;15.92;64.65;101082.09;5054474;28;20486;-81
2022/05/03 01:25:09;;;;;;;24.73;17.38;;;;;;;15.81;64.94;101088.25;5054266;28;20075;-81
2022/05/03 01:27:50;;;;;;;27.77;18.27;;;;;;;15.90;64.64;101084.03;5053268;28;20071;-81
2022/05/03 01:30:17;;;;;;;24.88;17.08;;;;;;;15.79;64.71;101086.69;5054514;28;20489;-81
2022/05/03 01:32:44;;;;;;;23.17;16.52;;;;;;;15.74;65.15;101084.41;5054026;28;20029;-82
2022/05/03 01:35:13;;;;;;;22.88;16.73;;;;;;;15.78;64.82;101085.84;5054419;28;20029;-81
2022/05/03 01:37:57;;;;;;;25.85;16.70;;;;;;;15.80;64.83;101091.88;5054143;28;20383;-81
2022/05/03 01:40:36;;;;;;;21.13;15.23;;;;;;;15.84;64.63;101077.41;5054190;28;20025;-81
2022/05/03 01:43:05;;;;;;;25.63;16.67;;;;;;;15.77;64.99;101078.84;5054092;28;20033;-81
2022/05/03 01:45:43;;;;;;;24.02;16.75;;;;;;;15.80;65.12;101075.16;5054203;28;20083;-81
2022/05/03 01:51:44;;;;;;;25.38;17.63;;;;;;;15.93;64.55;101070.53;5053776;28;20071;-81
2022/05/03 01:54:31;;;;;;;26.90;18.55;;;;;;;15.91;64.71;101058.38;5053826;28;20040;-82
2022/05/03 01:57:03;;;;;;;29.80;20.33;;;;;;;15.86;64.60;101061.41;5053816;28;20029;-82
2022/05/03 02:00:04;;;;;;;32.10;20.33;;;;;;;15.86;64.88;101062.25;5053772;28;20475;-81
2022/05/03 02:02:44;;;;;;;28.58;19.73;;;;;;;15.71;65.26;101066.06;5052326;28;20037;-81
2022/05/03 02:05:23;;;;;;;29.10;20.13;;;;;;;15.76;65.33;101060.47;5053631;28;20021;-81
2022/05/03 02:07:53;;;;;;;24.02;17.55;;;;;;;15.69;65.25;101065.34;5053554;28;20118;-81
2022/05/03 02:10:30;;;;;;;26.75;17.75;;;;;;;15.75;65.19;101062.25;5053559;28;20037;-82
2022/05/03 02:13:06;;;;;;;27.38;18.60;;;;;;;15.63;65.17;101057.91;5053717;28;20029;-81
2022/05/03 02:15:39;;;;;;;28.55;17.73;;;;;;;15.59;65.28;101062.59;5053745;28;20021;-81
2022/05/03 02:18:23;;;;;;;23.60;16.33;;;;;;;15.88;64.14;101055.97;5053631;28;20052;-81
2022/05/03 02:21:07;;;;;;;24.02;16.63;;;;;;;16.04;63.65;101056.44;5053213;28;20438;-81
2022/05/03 02:24:11;;;;;;;24.80;17.73;;;;;;;16.02;63.58;101056.56;5053056;28;20036;-82
2022/05/03 02:26:54;;;;;;;25.45;18.02;;;;;;;15.84;64.00;101050.94;5052992;28;20033;-81
2022/05/03 02:29:30;;;;;;;27.27;18.25;;;;;;;15.80;63.70;101046.84;5053380;28;20479;-81
2022/05/03 02:32:04;;;;;;;24.08;17.50;;;;;;;15.77;63.30;101055.03;5053338;28;20075;-81
2022/05/03 02:34:48;;;;;;;24.00;17.27;;;;;;;15.69;63.87;101057.41;5053265;28;20066;-81
2022/05/03 02:37:19;;;;;;;27.20;18.05;;;;;;;15.61;63.99;101049.25;5053176;28;20053;-81
2022/05/03 02:40:08;;;;;;;26.00;17.17;;;;;;;15.53;62.78;101051.66;5053047;28;20103;-81
2022/05/03 02:42:35;;;;;;;26.65;18.35;;;;;;;15.41;63.73;101059.59;5053121;28;20033;-82
2022/05/03 02:45:02;;;;;;;26.45;18.85;;;;;;;15.39;63.21;101056.22;5053084;28;20056;-82
2022/05/03 02:47:44;;;;;;;32.53;19.92;;;;;;;15.28;64.08;101058.84;5052984;28;20027;-81
2022/05/03 02:50:20;;;;;;;27.80;18.88;;;;;;;15.19;64.61;101059.56;5052963;28;20029;-81
2022/05/03 02:53:00;;;;;;;24.45;17.35;;;;;;;15.37;64.00;101058.13;5052728;28;20533;-82
2022/05/03 02:55:52;;;;;;;29.33;19.00;;;;;;;15.36;64.35;101061.72;5052862;28;20081;-81
2022/05/03 02:58:42;;;;;;;27.23;19.33;;;;;;;15.32;64.40;101062.94;5048237;28;20091;-82
2022/05/03 03:04:33;;;;;;;30.20;18.63;;;;;;;15.05;64.53;101064.13;5052535;28;20406;-82
2022/05/03 03:06:59;;;;;;;24.85;16.27;;;;;;;15.01;64.58;101065.31;5052058;28;20127;-81
2022/05/03 03:09:50;;;;;;;29.35;18.98;;;;;;;15.16;64.54;101068.56;5052601;28;20442;-80
2022/05/03 03:12:40;;;;;;;28.38;18.77;;;;;;;15.12;64.66;101059.19;5052311;28;20023;-81
2022/05/03 03:15:07;;;;;;;29.33;19.70;;;;;;;14.94;65.13;101057.97;5052439;28;20057;-81
2022/05/03 03:17:40;;;;;;;32.97;21.88;;;;;;;14.91;65.12;101061.69;5046560;28;20033;-82
2022/05/03 03:20:06;;;;;;;29.23;20.13;;;;;;;14.79;65.36;101062.59;5052682;28;20068;-81
2022/05/03 03:22:39;;;;;;;31.83;21.40;;;;;;;14.93;65.73;101048.31;5052233;28;20025;-81
2022/05/03 03:25:07;;;;;;;35.08;21.35;;;;;;;14.87;65.57;101057.59;5052210;28;20100;-82
2022/05/03 03:27:33;;;;;;;30.90;20.05;;;;;;;14.83;65.62;101058.75;5052012;28;20029;-81
2022/05/03 03:30:01;;;;;;;36.45;23.75;;;;;;;14.85;65.84;101057.69;5052396;28;20096;-81
2022/05/03 03:32:27;;;;;;;39.90;26.33;;;;;;;14.92;65.78;101063.34;5052082;28;20426;-82
2022/05/03 03:34:59;;;;;;;37.38;24.80;;;;;;;14.97;65.88;101053.28;5051554;28;20635;-82
2022/05/03 03:37:27;;;;;;;33.85;22.85;;;;;;;14.88;65.92;101053.97;5052051;28;20032;-81
2022/05/03 03:39:53;;;;;;;32.55;22.48;;;;;;;14.96;65.58;101058.69;5051995;28;20076;-81
2022/05/03 03:42:19;;;;;;;31.85;21.60;;;;;;;14.97;65.58;101071.78;5052011;28;20468;-81
2022/05/03 03:44:46;;;;;;;34.80;22.65;;;;;;;14.93;65.79;101066.84;5051971;28;20021;-82
2022/05/03 03:47:12;;;;;;;32.78;20.90;;;;;;;14.90;65.79;101059.97;5052018;28;20021;-81
2022/05/03 03:49:38;;;;;;;37.22;23.48;;;;;;;14.92;65.95;101060.72;5051908;28;20021;-81
2022/05/03 03:52:03;;;;;;;35.38;23.38;;;;;;;14.92;65.64;101055.41;5051734;28;20029;-81
2022/05/03 03:54:30;;;;;;;32.03;21.85;;;;;;;14.95;65.82;101062.28;5051880;28;20043;-82
2022/05/03 03:56:57;;;;;;;35.13;24.08;;;;;;;15.01;65.47;101056.53;5051798;28;20045;-81
2022/05/03 03:59:23;;;;;;;36.03;23.08;;;;;;;15.05;65.44;101068.56;5051874;28;20078;-81
2022/05/03 04:01:49;;;;;;;31.48;21.73;;;;;;;15.14;64.96;101059.06;5051803;28;20527;-81
2022/05/03 04:04:17;;;;;;;32.15;22.00;;;;;;;15.23;65.16;101063.66;5051664;28;20028;-81
2022/05/03 04:06:42;;;;;;;30.75;21.80;;;;;;;15.23;64.94;101067.16;5051782;28;20044;-81
2022/05/03 04:09:08;;;;;;;30.77;20.00;;;;;;;15.25;64.98;101059.09;5051852;28;20487;-81
2022/05/03 04:11:46;;;;;;;32.30;21.08;;;;;;;15.34;64.76;101062.81;5051748;28;20021;-81
2022/05/03 04:14:12;;;;;;;26.60;18.38;;;;;;;15.30;64.55;101062.22;5051480;28;20033;-81
2022/05/03 04:16:38;;;;;;;28.33;18.48;;;;;;;15.38;64.44;101065.13;5051568;28;20027;-81
2022/05/03 04:19:03;;;;;;;27.65;19.60;;;;;;;15.33;64.36;101064.63;5051845;28;20025;-81
2022/05/03 04:21:28;;;;;;;31.50;20.70;;;;;;;15.22;65.11;101061.97;5051277;28;20086;-82
2022/05/03 04:23:54;;;;;;;28.27;20.10;;;;;;;15.39;64.84;101061.50;5050293;28;20036;-81
2022/05/03 04:26:19;;;;;;;35.17;21.75;;;;;;;15.37;64.50;101062.59;5051593;28;20036;-81
2022/05/03 04:28:44;;;;;;;31.40;20.98;;;;;;;15.46;64.08;101065.38;5051666;28;20025;-81
2022/05/03 04:31:10;;;;;;;28.20;20.02;;;;;;;15.58;64.15;101073.28;5050102;28;20067;-81
2022/05/03 04:33:35;;;;;;;29.67;20.15;;;;;;;15.64;63.63;101070.19;5051569;28;20113;-81
2022/05/03 04:36:00;;;;;;;31.67;20.05;;;;;;;15.49;64.10;101080.16;5051549;28;20029;-81
2022/05/03 04:38:26;;;;;;;28.52;20.25;;;;;;;15.35;64.77;101075.94;5051537;28;20036;-81
2022/05/03 04:41:01;;;;;;;30.25;20.85;;;;;;;15.41;64.75;101080.75;5051312;28;20025;-81
2022/05/03 04:43:27;;;;;;;27.13;20.23;;;;;;;15.28;64.71;101072.06;5051402;28;20029;-82
2022/05/03 04:45:53;;;;;;;32.83;21.23;;;;;;;15.22;65.11;101069.91;5052737;28;20078;-81
2022/05/03 04:48:18;;;;;;;29.55;21.60;;;;;;;15.26;64.79;101071.34;5054125;28;20029;-81
2022/05/03 04:50:44;;;;;;;31.80;21.17;;;;;;;15.33;64.65;101077.03;5055056;28;20175;-81
2022/05/03 04:53:09;;;;;;;33.83;22.58;;;;;;;15.43;64.57;101080.63;5055061;28;20505;-81
2022/05/03 04:55:41;;;;;;;31.08;20.58;;;;;;;15.57;64.42;101079.56;5055430;28;20051;-81
2022/05/03 04:58:07;;;;;;;36.30;23.88;;;;;;;15.50;64.57;101073.91;5055397;28;20417;-80
2022/05/03 05:00:32;;;;;;;30.05;20.95;;;;;;;15.42;64.53;101087.75;5055028;28;20029;-82
2022/05/03 05:02:58;;;;;;;33.80;21.77;;;;;;;15.44;64.43;101083.19;5054992;28;20438;-81
2022/05/03 05:05:23;;;;;;;30.33;21.08;;;;;;;15.36;64.38;101082.91;5055049;28;20028;-82
2022/05/03 05:07:48;;;;;;;28.80;20.63;;;;;;;15.35;64.77;101081.22;5055076;28;20020;-81
2022/05/03 05:10:23;;;;;;;33.20;21.27;;;;;;;15.43;64.75;101083.28;5054943;28;20031;-81
2022/05/03 05:12:48;;;;;;;29.10;19.58;;;;;;;15.43;64.60;101086.78;5054888;28;20029;-82
2022/05/03 05:15:14;;;;;;;28.67;20.13;;;;;;;15.46;64.62;101083.03;5054711;28;20102;-81
2022/05/03 05:17:39;;;;;;;29.00;19.80;;;;;;;15.45;64.56;101084.84;5054800;28;20025;-81
2022/05/03 05:20:05;;;;;;;37.58;22.95;;;;;;;15.37;64.75;101084.59;5055036;28;20033;-81
2022/05/03 05:22:30;;;;;;;34.97;22.60;;;;;;;15.53;64.15;101078.97;5054822;28;20491;-81
2022/05/03 05:24:56;;;;;;;31.67;23.08;;;;;;;15.43;64.79;101078.81;5054730;28;20032;-81
2022/05/03 05:27:21;;;;;;;34.25;23.58;;;;;;;15.55;64.54;101081.50;5054491;28;20017;-81
2022/05/03 05:29:47;;;;;;;29.55;20.48;;;;;;;15.75;64.25;101082.59;5054435;28;20033;-81
2022/05/03 05:32:12;;;;;;;28.05;19.23;;;;;;;15.85;63.93;101084.38;5054386;28;20494;-82
2022/05/03 05:34:37;;;;;;;32.25;21.10;;;;;;;15.81;63.48;101090.88;5054530;28;20032;-81
2022/05/03 05:37:03;;;;;;;32.83;22.92;;;;;;;15.91;62.66;101095.47;5054587;28;20025;-81
2022/05/03 05:39:29;;;;;;;33.20;22.33;;;;;;;15.85;62.71;101100.28;5054518;28;20133;-80
2022/05/03 05:41:59;;;;;;;30.83;21.20;;;;;;;15.99;63.11;101095.69;5051533;28;20029;-81
2022/05/03 05:44:28;;;;;;;31.98;20.40;;;;;;;16.02;63.13;101103.41;5054302;28;20112;-81
2022/05/03 05:46:54;;;;;;;32.72;22.67;;;;;;;16.03;62.66;101105.94;5054252;28;20025;-81
2022/05/03 05:49:20;;;;;;;34.28;23.13;;;;;;;15.88;62.61;101109.81;5054095;28;20027;-81
2022/05/03 05:51:45;;;;;;;32.60;21.83;;;;;;;15.92;62.72;101111.25;5052021;28;20043;-80
2022/05/03 05:54:11;;;;;;;31.65;22.38;;;;;;;15.93;62.64;101112.06;5044781;28;20092;-81
2022/05/03 05:56:37;;;;;;;31.63;21.83;;;;;;;16.13;62.04;101113.97;5048526;28;20535;-80
2022/05/03 05:59:02;;;;;;;32.75;23.10;;;;;;;16.24;61.83;101111.31;5053159;28;20128;-81
2022/05/03 06:01:41;;;;;;;30.17;20.58;;;;;;;16.37;61.20;101110.31;5053450;28;20433;-81
2022/05/03 06:04:07;;;;;;;30.98;21.60;;;;;;;16.29;61.49;101112.72;5053990;28;20061;-81
2022/05/03 06:06:36;;;;;;;29.42;21.63;;;;;;;16.34;61.20;101113.22;5048903;28;20029;-80
2022/05/03 06:09:05;;;;;;;28.85;21.13;;;;;;;16.39;61.35;101111.88;5038556;28;20024;-81
2022/05/03 06:11:30;;;;;;;29.25;19.85;;;;;;;16.41;61.15;101111.72;5049959;28;20112;-80
2022/05/03 06:13:56;;;;;;;27.65;20.05;;;;;;;16.48;61.41;101118.22;5044282;28;20032;-81
2022/05/03 06:16:21;;;;;;;28.23;21.75;;;;;;;16.41;61.21;101119.69;5034509;28;20375;-82
2022/05/03 06:18:47;;;;;;;32.75;22.00;;;;;;;16.37;61.31;101112.94;5050531;28;20013;-81
2022/05/03 06:21:13;;;;;;;30.27;22.88;;;;;;;16.35;61.80;101122.84;5053135;28;20036;-82
2022/05/03 06:23:39;;;;;;;30.10;21.20;;;;;;;16.35;61.58;101126.34;5052266;28;20033;-81
2022/05/03 06:26:05;;;;;;;29.58;20.75;;;;;;;16.12;62.17;101124.69;5048021;28;20530;-80
2022/05/03 06:28:33;;;;;;;27.83;21.05;;;;;;;16.13;62.95;101127.22;5053034;28;20367;-82
2022/05/03 06:30:59;;;;;;;28.25;20.85;;;;;;;16.36;61.80;101121.88;5052769;28;20021;-81
2022/05/03 06:33:24;;;;;;;30.55;21.63;;;;;;;16.54;61.45;101125.69;5047947;28;20441;-81
2022/05/03 06:35:49;;;;;;;28.90;20.63;;;;;;;16.58;61.06;101123.63;5053080;28;20029;-82
2022/05/03 06:38:15;;;;;;;29.00;21.65;;;;;;;16.63;60.97;101116.16;5053445;28;20081;-81
2022/05/03 06:40:41;;;;;;;30.52;21.83;;;;;;;16.77;60.26;101122.97;5053095;28;20075;-81
2022/05/03 06:43:07;;;;;;;31.42;22.00;;;;;;;16.65;61.05;101120.34;5051689;28;20049;-81
2022/05/03 06:45:32;;;;;;;32.50;22.10;;;;;;;16.71;60.51;101121.66;5052752;28;20025;-81
2022/05/03 06:48:00;;;;;;;31.10;22.80;;;;;;;16.80;60.62;101117.38;5051007;28;20017;-81
2022/05/03 06:50:25;;;;;;;30.90;22.42;;;;;;;16.84;60.56;101118.84;5052681;28;20025;-82
2022/05/03 06:52:51;;;;;;;28.95;21.08;;;;;;;16.93;60.34;101127.88;5052505;28;20048;-81
2022/05/03 06:55:16;;;;;;;28.70;20.50;;;;;;;16.98;60.19;101125.66;5052660;28;20025;-82
2022/05/03 06:57:42;;;;;;;29.10;21.52;;;;;;;16.91;60.79;101125.34;5052681;28;20021;-81
2022/05/03 07:00:08;;;;;;;30.23;20.90;;;;;;;16.93;60.71;101128.69;5052536;28;20471;-81
2022/05/03 07:02:35;;;;;;;30.17;21.25;;;;;;;17.12;60.66;101124.50;5051935;28;20052;-81
2022/05/03 07:05:02;;;;;;;29.55;21.42;;;;;;;17.10;59.76;101129.09;5052609;28;20075;-81
2022/05/03 07:07:28;;;;;;;26.95;20.08;;;;;;;17.20;59.40;101133.50;5050168;28;20021;-81
2022/05/03 07:09:54;;;;;;;26.45;19.80;;;;;;;17.20;59.88;101130.84;5040217;28;20041;-82
2022/05/03 07:12:19;;;;;;;26.88;20.15;;;;;;;17.22;59.55;101133.38;5050142;28;20550;-81
2022/05/03 07:14:44;;;;;;;28.25;20.08;;;;;;;17.17;60.29;101136.41;5033679;28;20376;-81
2022/05/03 07:22:45;;;;;;;26.50;19.33;;;;;;;17.35;59.83;101131.34;5031377;28;20029;-81
2022/05/03 07:22:45;;;;;;;27.55;19.98;;;;;;;17.42;59.43;101135.19;5049463;28;20051;-81
2022/05/03 07:25:10;;;;;;;28.38;20.67;;;;;;;17.29;59.25;101133.69;5031785;28;20026;-80
2022/05/03 07:27:35;;;;;;;25.88;19.27;;;;;;;17.51;59.16;101143.31;5037405;28;20466;-81
2022/05/03 07:30:01;;;;;;;25.55;18.58;;;;;;;17.56;59.17;101138.47;5033062;28;20051;-81
2022/05/03 07:32:26;;;;;;;25.88;19.38;;;;;;;17.66;58.73;101138.53;5043067;28;20030;-81
2022/05/03 07:34:52;;;;;;;27.45;20.55;;;;;;;17.68;57.51;101134.75;5031975;28;20026;-80
2022/05/03 07:37:17;;;;;;;28.23;20.48;;;;;;;17.76;57.37;101147.38;5031973;28;20068;-81
2022/05/03 07:39:43;;;;;;;28.83;20.67;;;;;;;17.59;57.67;101147.00;5031138;28;20057;-80
2022/05/03 07:42:08;;;;;;;27.48;20.67;;;;;;;17.69;57.90;101146.22;5049132;28;20021;-80
2022/05/03 07:44:33;;;;;;;29.10;21.48;;;;;;;17.07;59.46;101147.94;5050598;28;20025;-80
2022/05/03 07:46:59;;;;;;;28.80;20.52;;;;;;;17.36;58.67;101154.28;5051212;28;20549;-80
2022/05/03 07:49:24;;;;;;;27.08;19.42;;;;;;;17.54;58.29;101159.00;5051871;28;20440;-80
2022/05/03 07:51:49;;;;;;;31.05;19.83;;;;;;;17.62;58.16;101159.19;5050118;28;20035;-80
2022/05/03 07:54:15;;;;;;;28.45;20.08;;;;;;;17.71;58.18;101160.19;5040632;28;20506;-81
2022/05/03 07:56:40;;;;;;;29.17;21.02;;;;;;;17.82;57.74;101163.59;5047347;28;20508;-80
2022/05/03 07:59:09;;;;;;;28.52;20.85;;;;;;;17.90;57.59;101159.47;5048606;28;20025;-80
2022/05/03 08:01:35;;;;;;;29.50;21.30;;;;;;;17.83;57.85;101157.38;5037114;28;20036;-81
2022/05/03 08:04:00;;;;;;;27.75;20.27;;;;;;;17.95;57.61;101162.56;5035213;28;20049;-81
2022/05/03 08:06:27;;;;;;;26.25;19.00;;;;;;;18.07;57.50;101163.31;5033640;28;20033;-81
2022/05/03 08:08:53;;;;;;;30.88;20.50;;;;;;;18.02;57.58;101159.25;5032704;28;20117;-81
2022/05/03 08:11:18;;;;;;;27.55;20.55;;;;;;;18.03;56.49;101166.25;5045833;28;20100;-81
2022/05/03 08:13:45;;;;;;;26.98;19.83;;;;;;;18.12;57.23;101169.06;5035932;28;20029;-81
2022/05/03 08:16:20;;;;;;;30.30;20.45;;;;;;;18.06;57.60;101169.63;5041604;28;20041;-80
2022/05/03 08:18:47;;;;;;;28.35;20.15;;;;;;;18.12;57.48;101166.41;5049930;28;20021;-81
2022/05/03 08:21:12;;;;;;;30.05;20.45;;;;;;;18.24;56.81;101162.66;5052065;28;20036;-81
2022/05/03 08:23:38;;;;;;;25.33;19.00;;;;;;;18.35;56.58;101165.22;5037964;28;20013;-81
2022/05/03 08:26:05;;;;;;;29.08;19.60;;;;;;;18.40;56.57;101168.31;5035645;28;20101;-81
2022/05/03 08:28:30;;;;;;;30.02;21.02;;;;;;;18.46;56.25;101169.56;5042165;28;20061;-81
2022/05/03 08:30:55;;;;;;;28.33;19.88;;;;;;;18.30;56.17;101161.28;5038967;28;20669;-81
2022/05/03 08:33:21;;;;;;;30.58;21.10;;;;;;;18.30;56.11;101163.94;5050243;28;20040;-81
2022/05/03 08:35:46;;;;;;;29.00;20.92;;;;;;;18.17;56.29;101165.03;5049129;28;20032;-81
2022/05/03 08:43:40;;;;;;;33.00;21.85;;;;;;;18.28;55.76;101164.06;5035503;28;20044;-82
2022/05/03 08:46:08;;;;;;;29.10;20.75;;;;;;;18.38;55.91;101170.28;5046808;28;20029;-80
2022/05/03 08:48:37;;;;;;;35.92;21.83;;;;;;;18.47;55.49;101170.44;5035108;28;20021;-80
2022/05/03 08:51:03;;;;;;;32.47;22.77;;;;;;;18.38;55.27;101156.13;5039869;28;20025;-80
2022/05/03 08:53:29;;;;;;;31.58;21.77;;;;;;;18.44;55.91;101166.22;5054827;28;20036;-80
2022/05/03 08:55:54;;;;;;;30.08;20.48;;;;;;;18.49;55.16;101168.47;5035352;28;20028;-80
2022/05/03 08:58:21;;;;;;;29.75;20.30;;;;;;;18.67;54.53;101173.97;5054749;28;20382;-81
2022/05/03 09:00:47;;;;;;;33.70;21.73;;;;;;;18.76;54.77;101173.97;5050595;28;20029;-81
2022/05/03 09:03:12;;;;;;;31.70;20.35;;;;;;;18.87;54.78;101166.88;5054943;28;20021;-80
2022/05/03 09:05:39;;;;;;;29.77;18.75;;;;;;;18.94;54.31;101171.50;5048532;28;20064;-81
2022/05/03 09:08:08;;;;;;;32.70;21.25;;;;;;;19.09;53.88;101173.72;5054774;28;20498;-81
2022/05/03 09:10:38;;;;;;;30.02;21.15;;;;;;;19.25;54.04;101168.66;5046030;28;20136;-81
2022/05/03 09:13:23;;;;;;;28.05;19.83;;;;;;;19.40;53.47;101174.38;5034733;28;20029;-81
2022/05/03 09:15:51;;;;;;;32.45;21.73;;;;;;;19.41;52.97;101174.25;5057476;28;20060;-81
2022/05/03 09:18:36;;;;;;;27.23;19.25;;;;;;;19.71;53.04;101172.38;5056618;28;20429;-81
2022/05/03 09:24:01;;;;;;;28.73;19.45;;;;;;;19.78;52.86;101178.78;5054057;28;20033;-81
2022/05/03 09:26:30;;;;;;;32.92;20.95;;;;;;;19.63;52.09;101172.25;5060165;28;20027;-81
2022/05/03 09:29:08;;;;;;;27.38;20.08;;;;;;;19.84;51.95;101179.22;5074455;28;20109;-81
2022/05/03 09:31:46;;;;;;;28.45;20.35;;;;;;;19.82;52.24;101171.34;5034106;28;20083;-81
2022/05/03 09:34:23;;;;;;;30.30;20.77;;;;;;;19.77;52.40;101177.13;5045619;28;20086;-81
2022/05/03 09:37:00;;;;;;;27.27;19.85;;;;;;;19.72;52.27;101176.72;5049884;28;20029;-81
2022/05/03 09:39:30;;;;;;;30.60;21.20;;;;;;;19.79;52.24;101175.16;5044897;28;20078;-80
2022/05/03 09:42:29;;;;;;;33.15;22.15;;;;;;;19.84;51.74;101180.03;5040011;28;20120;-81
2022/05/03 09:45:00;;;;;;;34.92;21.38;;;;;;;19.79;51.97;101183.16;5043975;28;20128;-81
2022/05/03 09:47:34;;;;;;;32.67;21.73;;;;;;;19.65;52.12;101172.94;5046616;28;20518;-81
2022/05/03 09:50:00;;;;;;;33.53;21.38;;;;;;;19.92;51.59;101177.47;5051541;28;20079;-80
2022/05/03 09:52:35;;;;;;;34.20;21.13;;;;;;;19.95;51.57;101176.38;5052960;28;20049;-81
2022/05/03 09:55:06;;;;;;;30.73;20.95;;;;;;;19.73;52.14;101173.06;5035100;28;20021;-81
2022/05/03 09:57:34;;;;;;;31.25;20.67;;;;;;;19.69;52.19;101174.31;5035143;28;20033;-81
2022/05/03 10:00:01;;;;;;;27.33;19.15;;;;;;;19.76;52.04;101169.28;5052123;28;20041;-81
2022/05/03 10:02:28;;;;;;;29.95;20.63;;;;;;;19.76;51.70;101167.44;5050812;28;20094;-81
2022/05/03 10:04:56;;;;;;;30.77;21.48;;;;;;;19.70;52.52;101169.81;5041742;28;20044;-81
2022/05/03 10:07:23;;;;;;;30.15;21.08;;;;;;;19.82;51.80;101166.03;5053794;28;20177;-81
2022/05/03 10:09:50;;;;;;;34.70;21.88;;;;;;;19.90;51.66;101179.44;5036452;28;20026;-81
2022/05/03 10:12:16;;;;;;;30.38;20.70;;;;;;;19.82;52.03;101171.34;5049562;28;20117;-81
2022/05/03 10:14:43;;;;;;;30.42;20.65;;;;;;;20.05;51.22;101169.16;5044722;28;20029;-80
2022/05/03 10:20:40;;;;;;;27.52;20.77;;;;;;;20.24;51.04;101170.03;5033932;28;20040;-80
2022/05/03 10:23:33;;;;;;;27.77;19.10;;;;;;;20.18;50.61;101169.66;5041377;28;20025;-81
2022/05/03 10:26:08;;;;;;;27.35;17.80;;;;;;;20.40;50.69;101164.91;5036964;28;20048;-81
2022/05/03 10:29:00;;;;;;;25.73;18.63;;;;;;;20.52;51.06;101165.53;5041328;28;20407;-81
2022/05/03 10:31:26;;;;;;;28.55;19.45;;;;;;;20.54;50.51;101167.06;5035412;28;20042;-81
2022/05/03 10:33:52;;;;;;;29.08;19.98;;;;;;;20.57;50.25;101165.91;5034728;28;20383;-80
2022/05/03 10:36:30;;;;;;;28.55;20.20;;;;;;;20.71;49.36;101175.25;5052397;28;20582;-81
2022/05/03 10:39:17;;;;;;;31.00;21.58;;;;;;;20.50;50.32;101170.19;5053853;28;20044;-81
2022/05/03 10:42:00;;;;;;;31.30;20.33;;;;;;;20.81;49.64;101162.66;5033403;28;20037;-81
2022/05/03 10:44:43;;;;;;;31.80;20.38;;;;;;;21.05;49.62;101163.88;5047571;28;20397;-81
2022/05/03 10:47:11;;;;;;;30.15;20.13;;;;;;;20.89;49.50;101169.91;5033771;28;20035;-81
2022/05/03 10:50:18;;;;;;;29.23;18.80;;;;;;;21.08;49.42;101161.75;5050151;28;20091;-81
2022/05/03 10:53:05;;;;;;;30.98;20.50;;;;;;;20.85;49.70;101174.72;5046483;28;20037;-81
2022/05/03 10:56:09;;;;;;;28.48;19.33;;;;;;;21.06;49.26;101162.91;5050970;28;20117;-81
2022/05/03 10:58:37;;;;;;;27.88;18.83;;;;;;;20.96;49.57;101163.81;5040354;28;20415;-81
2022/05/03 11:01:04;;;;;;;27.70;18.55;;;;;;;20.98;49.11;101164.50;5049250;28;20390;-81
2022/05/03 11:03:30;;;;;;;25.23;18.38;;;;;;;21.01;48.79;101155.34;5049080;28;20021;-81
2022/05/03 11:06:24;;;;;;;27.58;19.08;;;;;;;21.16;48.11;101163.63;5032935;28;20025;-81
2022/05/03 11:09:10;;;;;;;30.48;18.45;;;;;;;21.08;48.75;101155.56;5051816;28;20565;-81
2022/05/03 11:14:22;;;;;;;27.83;18.30;;;;;;;20.97;49.27;101157.50;5072691;28;20478;-81
2022/05/03 11:17:05;;;;;;;28.40;18.73;;;;;;;20.94;49.37;101163.13;5059760;28;20104;-81
2022/05/03 11:19:55;;;;;;;24.05;17.02;;;;;;;21.00;48.93;101159.00;5053620;28;20053;-81
2022/05/03 11:22:32;;;;;;;26.77;17.85;;;;;;;20.83;49.33;101155.34;5067912;28;20490;-81
2022/05/03 11:24:59;;;;;;;25.63;16.83;;;;;;;20.65;49.43;101149.19;5072204;28;20436;-81
2022/05/03 11:27:26;;;;;;;27.23;17.10;;;;;;;20.70;48.73;101160.25;5072224;28;20035;-81
2022/05/03 11:29:55;;;;;;;20.70;15.80;;;;;;;20.75;50.06;101157.94;5040560;28;20026;-81
2022/05/03 11:32:33;;;;;;;28.25;18.70;;;;;;;21.02;48.68;101153.53;5047047;28;20065;-82
2022/05/03 11:35:03;;;;;;;25.38;17.73;;;;;;;21.04;48.65;101156.88;5048664;28;20029;-81
2022/05/03 11:37:29;;;;;;;28.55;18.88;;;;;;;21.05;48.42;101153.19;5032600;28;20025;-81
2022/05/03 11:40:01;;;;;;;28.45;17.08;;;;;;;20.68;49.35;101148.88;5047769;28;20124;-81
2022/05/03 11:42:26;;;;;;;29.42;18.33;;;;;;;20.85;49.15;101153.34;5042809;28;20032;-81
2022/05/03 11:44:52;;;;;;;25.10;16.65;;;;;;;20.66;49.57;101143.69;5051994;28;20027;-81
2022/05/03 11:47:17;;;;;;;25.15;18.00;;;;;;;20.70;49.47;101141.56;5047712;28;20035;-80
2022/05/03 11:49:43;;;;;;;27.25;19.13;;;;;;;20.78;49.47;101146.97;5042892;28;20033;-81
2022/05/03 11:57:42;;;;;;;30.00;19.30;;;;;;;20.50;50.12;101143.50;5033030;28;20391;-81